Time;durP1;ratioP1;P1;durP2;ratioP2;P2;SDS_P1;SDS_P2;PMS_P1;PMS_P2;Temp;Humidity;BMP_temperature;BMP_pressure;BME280_temperature;BME280_humidity;BME280_pressure;Samples;Min_cycle;Max_cycle;Signal;HPM_P1;HPM_P2
2021/10/25 00:01:02;;;;;;;30.42;18.27;;;128.10;2252.80;;;;;;5096951;28;20436;-77
2021/10/25 00:03:28;;;;;;;25.77;16.25;;;103.30;2227.20;;;;;;5095639;28;20016;-78
2021/10/25 00:05:54;;;;;;;43.42;24.70;;;103.20;2227.20;;;;;;5095265;28;20020;-78
2021/10/25 00:08:20;;;;;;;31.63;19.52;;;102.90;2227.20;;;;;;5095497;28;20024;-79
2021/10/25 00:10:46;;;;;;;36.40;19.50;;;103.00;2227.20;;;;;;5095523;28;20032;-79
2021/10/25 00:13:12;;;;;;;41.85;26.30;;;103.30;2227.20;;;;;;5095222;28;20020;-77
2021/10/25 00:15:38;;;;;;;61.53;37.13;;;128.10;2252.80;;;;;;5095446;28;20467;-78
2021/10/25 00:18:04;;;;;;;47.67;28.48;;;128.00;2252.80;;;;;;5095521;28;20077;-78
2021/10/25 00:20:31;;;;;;;33.25;17.38;;;103.20;2227.20;;;;;;5094954;28;20026;-77
2021/10/25 00:22:57;;;;;;;29.10;15.90;;;103.10;2227.20;;;;;;5095272;28;20349;-77
2021/10/25 00:25:22;;;;;;;31.48;20.17;;;103.00;2227.20;;;;;;5094853;28;20026;-78
2021/10/25 00:27:48;;;;;;;49.33;27.60;;;102.90;2227.20;;;;;;5094832;28;20028;-78
2021/10/25 00:30:14;;;;;;;36.88;22.60;;;102.70;2227.20;;;;;;5095125;28;20063;-76
2021/10/25 00:32:40;;;;;;;37.03;19.85;;;102.80;2227.20;;;;;;5094769;28;20032;-78
2021/10/25 00:35:08;;;;;;;48.17;26.75;;;103.00;2227.20;;;;;;5094683;28;20056;-78
2021/10/25 00:37:34;;;;;;;174.30;88.82;;;102.60;2227.20;;;;;;5095959;28;20050;-78
2021/10/25 00:40:00;;;;;;;63.58;37.33;;;102.50;2227.20;;;;;;5094700;28;20456;-79
2021/10/25 00:42:26;;;;;;;64.43;39.65;;;102.50;2227.20;;;;;;5094922;28;20030;-79
2021/10/25 00:44:52;;;;;;;40.58;24.92;;;102.70;2227.20;;;;;;5094812;28;20024;-77
2021/10/25 00:47:18;;;;;;;57.88;39.63;;;102.60;2227.20;;;;;;5095761;28;20025;-77
2021/10/25 00:49:44;;;;;;;40.03;26.73;;;102.60;2227.20;;;;;;5095878;28;20024;-77
2021/10/25 00:52:10;;;;;;;46.88;26.73;;;102.70;2227.20;;;;;;5094682;28;20028;-76
2021/10/25 00:54:36;;;;;;;51.65;35.90;;;102.90;2227.20;;;;;;5094323;28;20160;-77
2021/10/25 00:57:04;;;;;;;30.50;18.27;;;102.80;2227.20;;;;;;5094692;28;20027;-76
2021/10/25 00:59:32;;;;;;;65.65;30.45;;;102.90;2227.20;;;;;;5094486;28;20024;-76
2021/10/25 01:01:58;;;;;;;52.53;35.50;;;103.00;2227.20;;;;;;5094231;28;20121;-77
2021/10/25 01:04:24;;;;;;;27.55;16.27;;;102.80;2227.20;;;;;;5093983;28;20115;-77
2021/10/25 01:06:50;;;;;;;35.90;22.25;;;102.60;2227.20;;;;;;5094267;28;20455;-78
2021/10/25 01:09:16;;;;;;;34.55;19.33;;;102.60;2227.20;;;;;;5094032;28;20024;-77
2021/10/25 01:11:42;;;;;;;28.10;16.70;;;102.60;2227.20;;;;;;5094381;28;20410;-78
2021/10/25 01:14:08;;;;;;;28.23;15.10;;;103.00;2227.20;;;;;;5095247;28;20024;-79
2021/10/25 01:16:34;;;;;;;29.42;16.13;;;103.10;2227.20;;;;;;5095262;28;20103;-77
2021/10/25 01:19:00;;;;;;;73.25;31.40;;;103.10;2227.20;;;;;;5094266;28;20093;-79
2021/10/25 01:21:26;;;;;;;40.05;20.08;;;103.20;2227.20;;;;;;5093901;28;20464;-79
2021/10/25 01:23:53;;;;;;;29.10;16.35;;;128.10;2252.80;;;;;;5094143;28;20084;-79
2021/10/25 01:26:21;;;;;;;22.45;13.15;;;103.10;2227.20;;;;;;5095561;28;20058;-78
2021/10/25 01:28:48;;;;;;;29.30;15.95;;;103.00;2227.20;;;;;;5093745;28;20036;-77
2021/10/25 01:31:17;;;;;;;26.90;14.75;;;103.10;2227.20;;;;;;5093913;28;20452;-78
2021/10/25 01:33:50;;;;;;;83.65;36.45;;;103.20;2227.20;;;;;;5093929;28;20475;-78
2021/10/25 01:36:17;;;;;;;71.53;31.05;;;103.10;2227.20;;;;;;5095052;28;20123;-77
2021/10/25 01:38:43;;;;;;;34.60;19.17;;;103.00;2227.20;;;;;;5093806;28;20020;-79
2021/10/25 01:41:09;;;;;;;29.45;17.63;;;102.80;2227.20;;;;;;5093768;28;20039;-77
2021/10/25 01:43:36;;;;;;;24.48;14.90;;;102.90;2227.20;;;;;;5093454;28;20031;-79
2021/10/25 01:46:03;;;;;;;29.00;14.82;;;102.90;2227.20;;;;;;5093713;28;20093;-79
2021/10/25 01:48:29;;;;;;;29.10;18.35;;;103.00;2227.20;;;;;;5093649;28;20392;-78
2021/10/25 01:50:54;;;;;;;31.42;16.45;;;103.00;2227.20;;;;;;5093247;28;20024;-78
2021/10/25 01:53:21;;;;;;;33.67;16.98;;;103.10;2227.20;;;;;;5093441;28;20028;-78
2021/10/25 01:55:54;;;;;;;28.88;16.60;;;102.80;2227.20;;;;;;5094721;28;20028;-79
2021/10/25 01:58:20;;;;;;;61.53;28.42;;;102.90;2227.20;;;;;;5094493;28;20028;-79
2021/10/25 02:00:46;;;;;;;48.13;23.38;;;102.90;2227.20;;;;;;5093384;28;20478;-79
2021/10/25 02:03:12;;;;;;;34.22;18.42;;;102.90;2227.20;;;;;;5093145;28;20028;-76
2021/10/25 02:05:37;;;;;;;25.85;16.50;;;102.80;2227.20;;;;;;5093069;28;20031;-80
2021/10/25 02:08:04;;;;;;;23.55;14.48;;;102.70;2227.20;;;;;;5094140;28;20024;-80
2021/10/25 02:10:31;;;;;;;23.20;14.10;;;102.70;2227.20;;;;;;5092633;28;20032;-79
2021/10/25 02:12:57;;;;;;;24.67;14.27;;;102.60;2227.20;;;;;;5092843;28;20043;-77
2021/10/25 02:15:22;;;;;;;24.23;13.48;;;102.40;2227.20;;;;;;5093155;28;20485;-77
2021/10/25 02:17:48;;;;;;;27.77;14.85;;;102.40;2227.20;;;;;;5091881;28;20474;-79
2021/10/25 02:20:14;;;;;;;21.08;12.57;;;77.50;2227.20;;;;;;5092745;28;20024;-79
2021/10/25 02:22:40;;;;;;;27.42;16.10;;;77.50;2227.20;;;;;;5092981;28;20028;-79
2021/10/25 02:25:06;;;;;;;21.58;15.88;;;77.40;2227.20;;;;;;5092800;28;20024;-77
2021/10/25 02:27:32;;;;;;;22.75;13.65;;;77.60;2227.20;;;;;;5092806;28;20024;-80
2021/10/25 02:29:58;;;;;;;23.95;14.73;;;102.40;2227.20;;;;;;5092963;28;20085;-80
2021/10/25 02:32:24;;;;;;;22.27;13.27;;;77.70;2227.20;;;;;;5092599;28;20028;-77
2021/10/25 02:34:50;;;;;;;28.63;14.50;;;77.70;2227.20;;;;;;5092532;28;20139;-77
2021/10/25 02:37:16;;;;;;;23.65;13.75;;;102.40;2227.20;;;;;;5092718;28;20024;-79
2021/10/25 02:39:43;;;;;;;22.02;12.75;;;77.70;2227.20;;;;;;5092532;28;20024;-80
2021/10/25 02:42:10;;;;;;;24.42;13.60;;;77.70;2227.20;;;;;;5092485;28;20123;-78
2021/10/25 02:44:37;;;;;;;26.23;11.93;;;77.40;2227.20;;;;;;5092837;28;20028;-79
2021/10/25 02:47:03;;;;;;;23.80;12.68;;;77.40;2227.20;;;;;;5092258;28;20028;-79
2021/10/25 02:49:30;;;;;;;23.98;12.80;;;77.50;2227.20;;;;;;5092655;28;20043;-79
2021/10/25 02:51:56;;;;;;;32.40;16.27;;;77.20;2227.20;;;;;;5092605;28;20077;-79
2021/10/25 02:54:24;;;;;;;24.55;14.70;;;77.30;2227.20;;;;;;5092372;28;20028;-79
2021/10/25 02:56:53;;;;;;;29.20;15.30;;;77.20;2227.20;;;;;;5092561;28;20039;-79
2021/10/25 02:59:20;;;;;;;24.15;14.27;;;77.30;2227.20;;;;;;5092200;28;20051;-79
2021/10/25 03:01:46;;;;;;;26.33;14.10;;;102.40;2227.20;;;;;;5092505;28;20024;-79
2021/10/25 03:04:13;;;;;;;22.02;12.02;;;77.60;2227.20;;;;;;5092506;28;20034;-76
2021/10/25 03:06:39;;;;;;;18.58;12.25;;;77.60;2227.20;;;;;;5092168;28;20028;-79
2021/10/25 03:09:07;;;;;;;22.17;11.35;;;77.60;2227.20;;;;;;5092557;28;20039;-79
2021/10/25 03:11:34;;;;;;;19.95;11.43;;;77.50;2227.20;;;;;;5092474;28;20111;-78
2021/10/25 03:14:00;;;;;;;22.55;11.43;;;77.50;2227.20;;;;;;5092214;28;20106;-78
2021/10/25 03:16:27;;;;;;;17.02;10.82;;;77.20;2227.20;;;;;;5092043;28;20031;-75
2021/10/25 03:18:53;;;;;;;22.05;11.77;;;77.30;2227.20;;;;;;5093349;28;20463;-79
2021/10/25 03:21:21;;;;;;;21.13;12.57;;;77.10;2227.20;;;;;;5092129;28;20081;-77
2021/10/25 03:23:48;;;;;;;21.40;12.18;;;77.00;2227.20;;;;;;5092245;28;20024;-78
2021/10/25 03:26:16;;;;;;;21.05;11.07;;;77.30;2227.20;;;;;;5093744;28;20151;-78
2021/10/25 03:28:42;;;;;;;26.50;12.60;;;77.30;2227.20;;;;;;5094311;28;20063;-78
2021/10/25 03:31:09;;;;;;;18.42;11.50;;;77.20;2227.20;;;;;;5097328;28;20472;-75
2021/10/25 03:33:35;;;;;;;19.13;13.20;;;77.30;2227.20;;;;;;5096304;28;20498;-76
2021/10/25 03:36:04;;;;;;;37.47;21.33;;;77.20;2227.20;;;;;;5095934;28;20048;-77
2021/10/25 03:38:32;;;;;;;26.45;15.13;;;77.20;2227.20;;;;;;5097418;28;20055;-77
2021/10/25 03:40:58;;;;;;;21.13;11.80;;;77.20;2227.20;;;;;;5095792;28;20024;-76
2021/10/25 03:43:28;;;;;;;24.25;12.80;;;77.20;2227.20;;;;;;5095788;28;20353;-75
2021/10/25 03:48:58;;;;;;;24.45;12.90;;;77.30;2227.20;;;;;;5084207;28;20392;-75
2021/10/25 03:51:24;;;;;;;19.63;10.95;;;77.10;2227.20;;;;;;5095924;28;20031;-75
2021/10/25 03:53:57;;;;;;;22.83;13.40;;;77.20;2227.20;;;;;;5095778;28;20024;-76
2021/10/25 03:56:44;;;;;;;22.20;11.63;;;77.20;2227.20;;;;;;5095553;28;20030;-75
2021/10/25 03:59:25;;;;;;;26.23;12.93;;;77.20;2227.20;;;;;;5097109;28;20020;-75
2021/10/25 04:29:16;;;;;;;28.60;14.88;;;77.00;2227.20;;;;;;5096518;28;20036;-77
2021/10/25 04:31:42;;;;;;;29.58;14.32;;;76.90;2227.20;;;;;;5094896;28;20024;-76
2021/10/25 04:34:08;;;;;;;28.50;17.02;;;76.90;2227.20;;;;;;5094784;28;20371;-78
2021/10/25 04:36:33;;;;;;;33.97;18.70;;;77.00;2227.20;;;;;;5095080;28;20028;-76
2021/10/25 04:38:59;;;;;;;30.33;16.58;;;77.10;2227.20;;;;;;5094234;28;20036;-78
2021/10/25 04:41:25;;;;;;;68.28;31.40;;;77.10;2227.20;;;;;;5094426;28;20051;-78
2021/10/25 04:43:51;;;;;;;72.32;31.13;;;76.90;2227.20;;;;;;5095879;28;20077;-76
2021/10/25 04:46:16;;;;;;;85.72;38.08;;;77.10;2227.20;;;;;;5095765;28;20032;-76
2021/10/25 04:48:42;;;;;;;39.60;20.83;;;77.10;2227.20;;;;;;5094906;28;20097;-77
2021/10/25 04:51:09;;;;;;;41.47;22.15;;;76.90;2227.20;;;;;;5094749;28;20028;-76
2021/10/25 04:53:35;;;;;;;42.92;21.30;;;77.10;2227.20;;;;;;5095803;28;20016;-77
2021/10/25 04:56:00;;;;;;;55.10;23.55;;;77.00;2227.20;;;;;;5094745;28;20032;-75
2021/10/25 04:58:28;;;;;;;73.15;31.70;;;77.00;2227.20;;;;;;5094357;28;20032;-74
2021/10/25 05:00:53;;;;;;;50.60;25.00;;;77.10;2227.20;;;;;;5094721;28;20329;-75
2021/10/25 05:03:19;;;;;;;45.38;22.58;;;77.10;2227.20;;;;;;5094588;28;20039;-76
2021/10/25 05:05:45;;;;;;;40.92;20.25;;;76.90;2227.20;;;;;;5094238;28;20024;-77
2021/10/25 05:08:11;;;;;;;49.25;25.42;;;76.80;2227.20;;;;;;5094338;28;20034;-78
2021/10/25 05:10:37;;;;;;;56.63;28.13;;;52.10;2227.20;;;;;;5094366;28;20028;-79
2021/10/25 05:13:02;;;;;;;57.33;32.78;;;51.90;2227.20;;;;;;5093969;28;20434;-80
2021/10/25 05:15:29;;;;;;;64.28;34.63;;;52.10;2227.20;;;;;;5094273;28;20115;-75
2021/10/25 05:17:54;;;;;;;50.63;30.90;;;52.10;2227.20;;;;;;5095266;28;20486;-78
2021/10/25 05:20:20;;;;;;;55.03;33.00;;;76.80;2227.20;;;;;;5095178;28;20028;-78
2021/10/25 05:22:46;;;;;;;54.30;32.35;;;76.80;2227.20;;;;;;5094103;28;20123;-80
2021/10/25 05:25:12;;;;;;;81.05;46.50;;;52.10;2227.20;;;;;;5095602;28;20055;-78
2021/10/25 05:27:38;;;;;;;66.53;36.45;;;52.10;2227.20;;;;;;5093716;28;20403;-78
2021/10/25 05:30:05;;;;;;;61.40;41.15;;;76.80;2227.20;;;;;;5094049;28;20030;-76
2021/10/25 05:32:30;;;;;;;68.13;40.15;;;76.80;2227.20;;;;;;5095196;28;20024;-78
2021/10/25 05:34:56;;;;;;;50.75;31.45;;;52.10;2227.20;;;;;;5093197;28;20044;-77
2021/10/25 05:37:24;;;;;;;60.05;38.55;;;76.80;2227.20;;;;;;5094735;28;20028;-75
2021/10/25 05:39:50;;;;;;;70.60;43.83;;;76.80;2227.20;;;;;;5094808;28;20039;-77
2021/10/25 05:42:16;;;;;;;48.83;29.80;;;52.10;2227.20;;;;;;5093501;28;20028;-78
2021/10/25 05:44:42;;;;;;;45.72;29.42;;;77.00;2227.20;;;;;;5093877;28;20775;-75
2021/10/25 05:47:08;;;;;;;48.35;29.13;;;77.00;2227.20;;;;;;5093645;28;20031;-75
2021/10/25 05:49:34;;;;;;;47.47;30.02;;;77.00;2227.20;;;;;;5093316;28;20028;-77
2021/10/25 05:52:00;;;;;;;39.47;23.95;;;77.00;2227.20;;;;;;5093497;28;20028;-78
2021/10/25 05:54:26;;;;;;;39.05;24.67;;;76.90;2227.20;;;;;;5093177;28;20517;-74
2021/10/25 05:56:53;;;;;;;41.95;23.90;;;76.90;2227.20;;;;;;5093393;28;20467;-77
2021/10/25 05:59:24;;;;;;;43.45;24.45;;;76.90;2227.20;;;;;;5093477;28;20035;-77
2021/10/25 06:02:09;;;;;;;48.97;28.20;;;76.90;2227.20;;;;;;5093172;28;20115;-77
2021/10/25 06:04:36;;;;;;;48.53;26.20;;;77.00;2227.20;;;;;;5094716;28;20020;-78
2021/10/25 06:07:02;;;;;;;41.03;22.85;;;76.90;2227.20;;;;;;5093268;28;20027;-79
2021/10/25 06:09:33;;;;;;;42.03;24.80;;;76.90;2227.20;;;;;;5093931;28;20429;-79
2021/10/25 06:12:00;;;;;;;43.20;23.83;;;76.90;2227.20;;;;;;5093305;28;20452;-79
2021/10/25 06:14:30;;;;;;;58.97;36.45;;;52.10;2227.20;;;;;;5093184;28;20054;-75
2021/10/25 06:16:58;;;;;;;55.15;31.17;;;77.00;2227.20;;;;;;5094148;28;20510;-75
2021/10/25 06:19:24;;;;;;;61.10;34.83;;;77.10;2227.20;;;;;;5094515;28;20023;-75
2021/10/25 06:21:50;;;;;;;80.57;43.92;;;77.10;2227.20;;;;;;5094249;28;20024;-75
2021/10/25 06:24:16;;;;;;;66.28;38.85;;;77.20;2227.20;;;;;;5092371;28;20035;-75
2021/10/25 06:26:42;;;;;;;58.65;33.35;;;77.10;2227.20;;;;;;5092841;28;20032;-76
2021/10/25 06:29:08;;;;;;;112.80;62.33;;;77.30;2227.20;;;;;;5094130;28;20031;-75
2021/10/25 06:31:34;;;;;;;82.50;49.28;;;77.10;2227.20;;;;;;5092717;28;20028;-75
2021/10/25 06:34:04;;;;;;;67.90;39.25;;;77.30;2227.20;;;;;;5094391;28;20110;-77
2021/10/25 06:36:33;;;;;;;54.42;34.80;;;77.30;2227.20;;;;;;5092504;28;20204;-77
2021/10/25 06:39:10;;;;;;;45.40;29.80;;;77.40;2227.20;;;;;;5092704;28;20028;-77
2021/10/25 06:41:36;;;;;;;44.25;27.63;;;77.60;2227.20;;;;;;5092716;28;20024;-78
2021/10/25 06:44:02;;;;;;;38.90;25.05;;;77.50;2227.20;;;;;;5093465;28;20020;-75
2021/10/25 06:46:28;;;;;;;53.45;37.03;;;77.30;2227.20;;;;;;5092537;28;20463;-75
2021/10/25 06:48:54;;;;;;;50.13;34.72;;;77.30;2227.20;;;;;;5093679;28;20059;-75
2021/10/25 06:51:19;;;;;;;47.72;29.52;;;77.20;2227.20;;;;;;5093801;28;20032;-76
2021/10/25 06:53:45;;;;;;;42.65;29.27;;;77.40;2227.20;;;;;;5092635;28;20054;-75
2021/10/25 06:56:11;;;;;;;53.00;36.97;;;77.60;2227.20;;;;;;5092562;28;20474;-75
2021/10/25 06:58:37;;;;;;;36.70;26.15;;;77.60;2227.20;;;;;;5092323;28;20065;-76
2021/10/25 07:01:03;;;;;;;45.05;28.13;;;77.60;2227.20;;;;;;5092575;28;20379;-75
2021/10/25 07:03:29;;;;;;;30.10;19.70;;;102.40;2227.20;;;;;;5091896;28;20028;-75
2021/10/25 07:05:59;;;;;;;36.42;23.92;;;77.70;2227.20;;;;;;5093466;28;20107;-75
2021/10/25 07:08:27;;;;;;;38.53;24.15;;;77.60;2227.20;;;;;;5092413;28;20387;-75
2021/10/25 07:10:53;;;;;;;39.10;23.42;;;77.70;2227.20;;;;;;5092419;28;20456;-75
2021/10/25 07:13:20;;;;;;;34.45;23.50;;;102.40;2227.20;;;;;;5093631;28;20032;-75
2021/10/25 07:15:49;;;;;;;34.22;21.02;;;102.40;2227.20;;;;;;5092397;28;20538;-75
2021/10/25 07:21:48;;;;;;;37.95;24.88;;;102.80;2227.20;;;;;;5080983;28;20494;-75
2021/10/25 07:26:16;;;;;;;29.83;19.52;;;103.00;2227.20;;;;;;5092969;28;20424;-78
2021/10/25 08:08:01;;;;;;;53.00;33.28;;;153.80;2252.80;;;;;;5092524;28;20047;-73
2021/10/25 08:10:40;;;;;;;32.95;21.45;;;154.00;2252.80;;;;;;5091874;28;20131;-73
2021/10/25 08:13:13;;;;;;;26.23;16.73;;;154.00;2252.80;;;;;;5091934;28;20035;-72
2021/10/25 08:15:42;;;;;;;26.23;17.08;;;154.10;2252.80;;;;;;5093231;28;20054;-71
2021/10/25 08:18:32;;;;;;;26.35;17.55;;;154.20;2252.80;;;;;;5095346;28;20032;-72
2021/10/25 08:20:55;;;;;;;51.92;31.38;;;154.20;2252.80;;;;;;5096187;28;20035;-71
2021/10/25 08:23:22;;;;;;;33.75;21.98;;;154.30;2252.80;;;;;;5096274;28;20509;-74
2021/10/25 08:25:48;;;;;;;35.95;23.65;;;154.50;2252.80;;;;;;5096235;28;20024;-72
2021/10/25 08:28:14;;;;;;;32.88;24.00;;;154.40;2252.80;;;;;;5094854;28;20137;-71
2021/10/25 08:30:41;;;;;;;39.13;25.27;;;179.20;2252.80;;;;;;5095137;28;20032;-72
2021/10/25 08:41:03;;;;;;;34.95;23.25;;;180.10;2252.80;;;;;;5096359;28;20027;-76
2021/10/25 08:43:29;;;;;;;31.38;19.60;;;180.10;2252.80;;;;;;5094920;28;20526;-75
2021/10/25 08:45:56;;;;;;;35.75;23.27;;;180.10;2252.80;;;;;;5095038;28;20162;-74
2021/10/25 08:48:22;;;;;;;27.23;20.48;;;205.00;2252.80;;;;;;5094825;28;20364;-75
2021/10/25 08:50:48;;;;;;;31.98;19.13;;;205.30;2252.80;;;;;;5095630;28;20039;-76
2021/10/25 08:53:15;;;;;;;34.17;21.40;;;205.40;2252.80;;;;;;5094534;28;20058;-74
2021/10/25 08:55:41;;;;;;;33.17;22.42;;;205.40;2252.80;;;;;;5095736;28;20395;-77
2021/10/25 08:58:07;;;;;;;31.85;20.95;;;205.50;2252.80;;;;;;5094555;28;20035;-76
2021/10/25 09:00:42;;;;;;;41.42;22.40;;;205.50;2252.80;;;;;;5094735;28;20020;-75
2021/10/25 09:03:08;;;;;;;28.92;18.00;;;205.60;2252.80;;;;;;5094786;28;20468;-74
2021/10/25 09:05:35;;;;;;;32.80;19.45;;;230.40;2252.80;;;;;;5094609;28;20073;-78
2021/10/25 09:08:04;;;;;;;30.60;20.35;;;230.80;2252.80;;;;;;5094910;28;20472;-78
2021/10/25 09:10:42;;;;;;;21.00;13.60;;;231.20;2252.80;;;;;;5094893;28;20475;-76
2021/10/25 09:13:21;;;;;;;28.17;17.77;;;231.30;2252.80;;;;;;5096497;28;20414;-77
2021/10/25 09:15:50;;;;;;;29.20;18.55;;;256.10;2252.80;;;;;;5096498;28;20113;-78
2021/10/25 09:18:21;;;;;;;32.83;19.95;;;256.30;2252.80;;;;;;5094625;28;20119;-78
2021/10/25 09:20:51;;;;;;;36.55;23.35;;;256.40;2252.80;;;;;;5094890;28;20165;-75
2021/10/25 09:23:22;;;;;;;31.08;18.70;;;256.50;2252.80;;;;;;5094307;28;20024;-75
2021/10/25 09:26:03;;;;;;;32.97;22.70;;;256.60;2252.80;;;;;;5093567;28;20069;-76
2021/10/25 09:28:35;;;;;;;31.05;17.30;;;256.70;2252.80;;;;;;5095401;28;20028;-75
2021/10/25 09:31:06;;;;;;;25.90;14.95;;;256.80;2252.80;;;;;;5096231;28;20024;-75
2021/10/25 09:33:41;;;;;;;21.08;12.85;;;256.90;2252.80;;;;;;5107287;28;20039;-74
2021/10/25 09:36:18;;;;;;;30.13;15.55;;;256.90;2252.80;;;;;;5109589;28;20044;-74
2021/10/25 09:50:01;;;;;;;28.02;15.30;;;282.00;2278.40;;;;;;5104604;28;20036;-74
2021/10/25 09:52:33;;;;;;;18.35;10.45;;;282.10;2278.40;;;;;;5103126;28;20476;-75
2021/10/25 09:55:03;;;;;;;23.02;13.35;;;282.20;2278.40;;;;;;5104671;28;20499;-74
2021/10/25 09:57:41;;;;;;;19.50;12.73;;;282.50;2278.40;;;;;;5103747;28;20035;-75
2021/10/25 10:00:09;;;;;;;26.88;15.68;;;282.50;2278.40;;;;;;5101130;28;20080;-75
2021/10/25 10:02:37;;;;;;;35.72;17.13;;;307.20;2304.00;;;;;;5101424;28;20028;-75
2021/10/25 10:05:05;;;;;;;51.67;22.90;;;307.30;2304.00;;;;;;5101787;28;20026;-75
2021/10/25 10:07:35;;;;;;;23.25;16.02;;;307.30;2304.00;;;;;;5101455;28;20027;-74
2021/10/25 10:10:02;;;;;;;26.08;14.55;;;307.40;2304.00;;;;;;5097340;28;20028;-75
2021/10/25 10:12:29;;;;;;;30.92;17.08;;;307.50;2304.00;;;;;;5094933;28;20492;-76
2021/10/25 10:14:59;;;;;;;37.05;18.27;;;307.70;2304.00;;;;;;5092764;28;20094;-78
2021/10/25 13:40:43;;;;;;;25.85;19.77;;;486.70;1766.40;;;;;;5130405;27;20104;-76
2021/10/25 13:43:09;;;;;;;19.63;14.07;;;486.70;1817.60;;;;;;5092071;28;20039;-75
2021/10/25 13:45:35;;;;;;;16.58;10.77;;;486.70;1792.00;;;;;;5092508;28;20107;-75
2021/10/25 13:48:01;;;;;;;15.00;11.52;;;486.50;1766.40;;;;;;5091871;28;20507;-75
2021/10/25 13:50:27;;;;;;;17.48;13.10;;;486.40;1792.00;;;;;;5092179;28;20034;-74
2021/10/25 13:52:53;;;;;;;23.95;17.40;;;461.50;1817.60;;;;;;5110366;28;20106;-75
2021/10/25 13:55:18;;;;;;;22.02;17.15;;;461.30;1843.20;;;;;;5091866;28;20024;-76
2021/10/25 13:57:47;;;;;;;22.35;14.07;;;461.00;1868.80;;;;;;5091930;28;20509;-74
2021/10/25 14:00:15;;;;;;;18.00;13.13;;;460.80;1868.80;;;;;;5110021;28;20028;-74
2021/10/25 14:02:43;;;;;;;14.13;8.95;;;435.90;1817.60;;;;;;5091761;28;20510;-75
2021/10/25 14:05:17;;;;;;;14.88;9.95;;;435.60;1817.60;;;;;;5109246;28;20129;-74
2021/10/25 14:07:44;;;;;;;21.27;11.93;;;435.70;1868.80;;;;;;5111232;28;20023;-76
2021/10/25 14:10:17;;;;;;;19.25;14.70;;;435.40;1920.00;;;;;;5092717;28;20080;-76
2021/10/25 14:12:44;;;;;;;19.02;13.70;;;435.30;1920.00;;;;;;5092609;28;20020;-76
2021/10/25 14:17:42;;;;;;;19.67;14.30;;;435.20;1945.60;;;;;;5111017;28;20023;-76
2021/10/25 14:20:08;;;;;;;20.75;16.35;;;410.50;1971.20;;;;;;5092296;28;20027;-75
2021/10/25 14:22:34;;;;;;;21.85;16.35;;;410.50;1920.00;;;;;;5110901;28;20031;-75
2021/10/25 14:24:59;;;;;;;28.83;17.10;;;410.30;1945.60;;;;;;5092639;28;20028;-75
2021/10/25 14:27:27;;;;;;;27.38;16.90;;;410.30;1996.80;;;;;;5110748;28;20022;-74
2021/10/25 14:29:53;;;;;;;34.92;26.35;;;410.20;1996.80;;;;;;5092411;28;20094;-76
2021/10/25 14:32:19;;;;;;;30.55;21.20;;;410.10;1971.20;;;;;;5110204;28;20094;-75
2021/10/25 14:34:45;;;;;;;21.45;17.70;;;410.10;1996.80;;;;;;5092396;28;20020;-77
2021/10/25 14:37:12;;;;;;;23.75;17.00;;;410.00;2048.00;;;;;;5110753;28;20497;-74
2021/10/25 14:39:42;;;;;;;25.23;18.77;;;410.00;2022.40;;;;;;5099792;28;20050;-76
2021/10/25 14:44:39;;;;;;;32.20;21.70;;;409.70;2073.60;;;;;;5110504;28;20036;-76
2021/10/25 14:54:57;;;;;;;64.07;38.22;;;384.80;2150.40;;;;;;5096353;28;20550;-75
2021/10/25 14:57:25;;;;;;;59.85;35.40;;;384.70;2124.80;;;;;;5096710;28;20016;-77
2021/10/25 14:59:53;;;;;;;71.88;42.10;;;384.60;2201.60;;;;;;5095131;28;20410;-75
2021/10/25 15:02:19;;;;;;;152.70;80.43;;;384.60;2201.60;;;;;;5095046;28;20031;-76
2021/10/25 15:04:47;;;;;;;93.82;53.97;;;384.40;2227.20;;;;;;5096784;28;20028;-75
2021/10/25 15:07:20;;;;;;;88.07;55.17;;;384.30;2252.80;;;;;;5094872;28;20020;-77
2021/10/25 15:09:54;;;;;;;92.82;59.72;;;384.30;2304.00;;;;;;5096494;28;20016;-76
2021/10/25 15:12:22;;;;;;;94.00;62.72;;;384.10;2329.60;;;;;;5095095;28;20016;-76
2021/10/25 15:14:49;;;;;;;64.03;42.70;;;359.30;2278.40;;;;;;5094769;28;20032;-76
2021/10/25 15:17:16;;;;;;;54.60;40.10;;;359.30;2201.60;;;;;;5094965;28;20394;-75
2021/10/25 15:19:43;;;;;;;54.60;38.95;;;359.30;2150.40;;;;;;5096238;28;20024;-76
2021/10/25 15:22:11;;;;;;;69.38;48.53;;;359.30;2124.80;;;;;;5094717;28;20353;-75
2021/10/25 15:24:40;;;;;;;54.15;37.25;;;359.20;2150.40;;;;;;5095005;28;20386;-75
2021/10/25 15:27:13;;;;;;;52.28;38.00;;;359.10;2150.40;;;;;;5094713;28;20020;-75
2021/10/25 15:29:40;;;;;;;53.30;39.15;;;359.10;2124.80;;;;;;5094493;28;20111;-75
2021/10/25 15:32:06;;;;;;;57.65;43.42;;;359.00;2150.40;;;;;;5094616;28;20020;-76
2021/10/25 15:34:32;;;;;;;59.28;41.10;;;359.00;2124.80;;;;;;5094657;28;20035;-75
2021/10/25 15:36:58;;;;;;;53.33;41.38;;;358.90;2150.40;;;;;;5094176;28;20463;-75
2021/10/25 15:39:24;;;;;;;58.13;43.63;;;358.80;2176.00;;;;;;5085961;28;20087;-75
2021/10/25 15:41:50;;;;;;;59.15;45.22;;;358.70;2201.60;;;;;;5057520;28;20032;-77
2021/10/25 15:44:17;;;;;;;71.78;53.67;;;358.70;2176.00;;;;;;5075288;28;20024;-75
2021/10/25 15:46:43;;;;;;;75.43;56.53;;;358.60;2150.40;;;;;;5075459;28;20028;-77
2021/10/25 15:49:09;;;;;;;74.60;52.42;;;358.60;2176.00;;;;;;5057203;28;20119;-78
2021/10/25 15:51:36;;;;;;;55.42;41.33;;;358.50;2227.20;;;;;;5075551;28;20453;-75
2021/10/25 15:54:03;;;;;;;58.70;43.38;;;358.50;2201.60;;;;;;5075267;28;20017;-75
2021/10/25 15:56:29;;;;;;;136.07;86.20;;;333.70;2201.60;;;;;;5057089;28;20028;-75
2021/10/25 15:58:55;;;;;;;231.82;137.30;;;333.50;2227.20;;;;;;5074913;28;20448;-75
2021/10/25 16:01:21;;;;;;;206.07;120.45;;;333.50;2304.00;;;;;;5057181;28;20023;-76
2021/10/25 16:03:47;;;;;;;187.35;109.78;;;333.30;2329.60;;;;;;5055931;28;20020;-75
2021/10/25 16:06:13;;;;;;;141.55;88.75;;;333.20;2329.60;;;;;;5074687;28;20021;-74
2021/10/25 16:08:38;;;;;;;213.77;127.35;;;333.10;2329.60;;;;;;5056856;28;20024;-74
2021/10/25 16:11:05;;;;;;;141.07;89.20;;;333.00;2329.60;;;;;;5056813;28;20031;-74
2021/10/25 16:13:31;;;;;;;141.07;91.93;;;332.90;2329.60;;;;;;5075027;28;20017;-76
2021/10/25 17:04:58;;;;;;;108.43;73.18;;;281.70;2278.40;;;;;;5111469;28;20494;-74
2021/10/25 17:10:09;;;;;;;105.65;65.13;;;281.70;2278.40;;;;;;5111830;28;20035;-73
2021/10/25 17:12:34;;;;;;;104.63;63.55;;;281.70;2278.40;;;;;;5112809;28;20367;-74
2021/10/25 17:15:00;;;;;;;112.50;81.50;;;281.80;2278.40;;;;;;5111180;28;20550;-75
2021/10/25 17:17:26;;;;;;;125.75;88.03;;;282.00;2278.40;;;;;;5110269;28;20027;-74
2021/10/25 17:19:52;;;;;;;97.80;69.45;;;281.80;2278.40;;;;;;5110047;28;20032;-74
2021/10/25 17:22:20;;;;;;;91.78;62.38;;;281.80;2278.40;;;;;;5109727;28;20031;-75
2021/10/25 17:24:46;;;;;;;91.28;62.67;;;281.90;2278.40;;;;;;5109858;28;20024;-74
2021/10/25 17:27:12;;;;;;;55.25;38.25;;;282.00;2278.40;;;;;;5109542;28;20463;-74
2021/10/25 17:29:38;;;;;;;40.30;27.42;;;281.90;2278.40;;;;;;5109898;28;20073;-73
2021/10/25 17:32:05;;;;;;;41.25;25.70;;;281.90;2278.40;;;;;;5111383;28;20034;-74
2021/10/25 17:34:31;;;;;;;42.33;30.20;;;281.90;2278.40;;;;;;5109456;28;20045;-73
2021/10/25 17:36:58;;;;;;;49.03;36.03;;;281.70;2278.40;;;;;;5109677;28;20517;-74
2021/10/25 17:39:24;;;;;;;68.30;51.45;;;281.70;2278.40;;;;;;5109658;28;20459;-75
2021/10/25 17:41:50;;;;;;;194.93;138.55;;;281.70;2278.40;;;;;;5109236;28;20031;-75
2021/10/25 17:44:16;;;;;;;177.45;120.85;;;256.90;2252.80;;;;;;5109537;28;20055;-75
2021/10/25 17:46:44;;;;;;;161.20;113.10;;;256.90;2252.80;;;;;;5109071;28;20480;-75
2021/10/25 17:49:10;;;;;;;175.20;117.15;;;281.60;2278.40;;;;;;5108731;28;20027;-76
2021/10/25 17:51:40;;;;;;;193.73;131.18;;;256.90;2252.80;;;;;;5110223;28;20023;-75
2021/10/25 17:54:06;;;;;;;201.25;137.85;;;256.90;2252.80;;;;;;5106730;28;20024;-75
2021/10/25 17:56:32;;;;;;;215.20;146.15;;;256.90;2252.80;;;;;;5108777;28;20097;-75
2021/10/25 17:58:58;;;;;;;182.30;127.35;;;256.90;2252.80;;;;;;5109264;28;20020;-75
2021/10/25 18:01:25;;;;;;;160.30;113.22;;;256.90;2252.80;;;;;;5110733;28;20055;-75
2021/10/25 18:03:51;;;;;;;158.75;114.15;;;256.90;2252.80;;;;;;5108888;28;20026;-75